Huvudsida
METAR-TAF:

METAR-TAF

Flygplatser :

Sunan International Airport

Pyongyang, Nordkorea

latitud: 39-02N, longitud: 125-47E, höjd: 36 m

METAR: saknas

Tid: 18:06 (09:36 UTC)

Väderprognos

Denna rapport gjordes för 5 timmar och 36 minuter sedan, klockan 04:00 UTC
Prognos gäller från 22 kl. 06 UTC till 23 kl. 06 UTC
Vind 8 kt från sydväst
Sikt: 6000 m
Mulet på en höjd av 2000 ft
lätt regn
Temporärt
från 22 kl. 12 UTC till 22 kl. 15 UTC
Sikt: 2000 m
Spridda moln på en höjd av 1000 ft, Cumulonimbus.
Brutna moln på en höjd av 2000 ft
(lätt

TAF: ZKPY 220400Z 2206/2306 22004MPS 6000 -RA OVC020 TEMPO 2212/2215 2000 - TSSHRA SCT010CB BKN020 TX23/2305Z TN13/2222Z

Aktuella väderrapporter och prognoser från 4000 flygplatser (METAR- och TAF-rapporter).

De tillgängliga stationerna syns som gula och röda prickar på kartan.

För musen över prickarna för att se namnen på stationerna.

Klicka sedan för att få väderrapporter och prognoser.

För att ändra kartan: Klicka på de gröna knapparna med ett svart kors på för att zooma in; den gröna knappen med ett streck på för att zooma ut; eller på de gröna pilarna för angränsande kartor.


METAR-TAF: